createdAt,value
2023-01-25T00:02:17.631Z,5.16
2023-01-25T00:04:46.519Z,5.18
2023-01-25T00:07:14.917Z,5.04
2023-01-25T00:09:43.419Z,4.88
2023-01-25T00:12:11.841Z,4.74
2023-01-25T00:14:40.595Z,4.64
2023-01-25T00:17:09.082Z,4.65
2023-01-25T00:19:38.122Z,4.72
2023-01-25T00:22:06.886Z,4.71
2023-01-25T00:24:38.679Z,4.88
2023-01-25T00:27:07.098Z,4.70
2023-01-25T00:29:35.712Z,4.86
2023-01-25T00:32:07.341Z,4.90
2023-01-25T00:34:45.335Z,4.79
2023-01-25T00:37:24.640Z,4.83
2023-01-25T00:39:55.642Z,4.90
2023-01-25T00:42:24.076Z,4.89
2023-01-25T00:44:52.539Z,4.95
2023-01-25T00:47:24.218Z,5.00
2023-01-25T00:49:52.754Z,5.07
2023-01-25T00:52:22.756Z,4.99
2023-01-25T00:54:51.244Z,5.01
2023-01-25T00:57:20.176Z,5.02
2023-01-25T00:59:48.667Z,5.05
2023-01-25T01:02:19.705Z,4.85
2023-01-25T01:04:48.610Z,5.16
2023-01-25T01:07:17.526Z,5.25
2023-01-25T01:09:46.954Z,5.22
2023-01-25T01:12:16.999Z,5.17
2023-01-25T01:14:45.394Z,5.00
2023-01-25T01:17:13.702Z,5.12
2023-01-25T01:19:41.965Z,5.03
2023-01-25T01:22:10.324Z,5.09
2023-01-25T01:24:39.195Z,5.19
2023-01-25T01:27:07.775Z,5.29
2023-01-25T01:29:36.563Z,5.46
2023-01-25T01:32:06.075Z,5.36
2023-01-25T01:34:35.346Z,5.36
2023-01-25T01:37:04.001Z,5.47
2023-01-25T01:39:32.361Z,5.52
2023-01-25T01:42:01.249Z,5.60
2023-01-25T01:44:50.008Z,5.65
2023-01-25T01:47:24.595Z,5.93
2023-01-25T01:50:07.054Z,5.76
2023-01-25T01:52:36.910Z,5.62
2023-01-25T01:55:12.802Z,5.60
2023-01-25T01:57:43.920Z,5.74
2023-01-25T02:00:13.027Z,5.76
2023-01-25T02:02:42.189Z,5.86
2023-01-25T02:05:14.961Z,5.87
2023-01-25T02:07:43.680Z,5.54
2023-01-25T02:10:12.513Z,5.51
2023-01-25T02:12:42.678Z,5.51
2023-01-25T02:15:11.570Z,5.54
2023-01-25T02:17:42.121Z,5.55
2023-01-25T02:20:22.432Z,5.60
2023-01-25T02:22:53.738Z,5.78
2023-01-25T02:25:22.124Z,5.87
2023-01-25T02:27:53.609Z,5.44
2023-01-25T02:30:22.272Z,5.28
2023-01-25T02:32:53.084Z,5.14
2023-01-25T02:35:36.553Z,5.12
2023-01-25T02:38:05.475Z,5.15
2023-01-25T02:40:36.931Z,5.33
2023-01-25T02:43:06.048Z,5.34
2023-01-25T02:45:35.539Z,5.40
2023-01-25T02:48:04.383Z,5.45
2023-01-25T02:50:33.283Z,5.50
2023-01-25T02:53:01.719Z,5.67
2023-01-25T02:55:30.401Z,5.60
2023-01-25T02:57:58.679Z,5.51
2023-01-25T03:00:27.272Z,5.45
2023-01-25T03:02:55.720Z,5.42
2023-01-25T03:05:25.159Z,5.41
2023-01-25T03:07:53.973Z,5.41
2023-01-25T03:10:23.442Z,5.53
2023-01-25T03:12:51.959Z,5.55
2023-01-25T03:15:20.348Z,5.41
2023-01-25T03:17:48.958Z,5.13
2023-01-25T03:20:18.959Z,5.31
2023-01-25T03:22:48.199Z,5.40
2023-01-25T03:25:16.648Z,5.36
2023-01-25T03:27:56.601Z,5.32
2023-01-25T03:30:25.542Z,5.33
2023-01-25T03:32:54.773Z,5.32
2023-01-25T03:35:23.405Z,5.40
2023-01-25T03:37:53.508Z,5.49
2023-01-25T03:40:21.972Z,5.57
2023-01-25T03:42:52.474Z,5.72
2023-01-25T03:45:20.912Z,5.78
2023-01-25T03:47:50.490Z,6.10
2023-01-25T03:50:20.088Z,6.21
2023-01-25T03:52:52.813Z,6.19
2023-01-25T03:55:21.530Z,6.20
2023-01-25T03:57:52.462Z,6.16
2023-01-25T04:00:22.088Z,6.26
2023-01-25T04:02:50.920Z,6.33
2023-01-25T04:05:20.747Z,6.42
2023-01-25T04:07:49.528Z,6.41
2023-01-25T04:10:20.673Z,6.21
2023-01-25T04:12:50.084Z,6.24
2023-01-25T04:15:20.992Z,6.56
2023-01-25T04:17:49.789Z,6.66
2023-01-25T04:20:23.549Z,6.66
2023-01-25T04:22:52.495Z,6.79
2023-01-25T04:25:21.489Z,6.87
2023-01-25T04:27:54.474Z,6.84
2023-01-25T04:30:23.235Z,6.88
2023-01-25T04:32:52.124Z,6.86
2023-01-25T04:35:24.992Z,6.84
2023-01-25T04:37:56.609Z,6.94
2023-01-25T04:40:26.949Z,6.78
2023-01-25T04:42:55.534Z,6.81
2023-01-25T04:45:25.747Z,6.87
2023-01-25T04:47:58.641Z,6.88
2023-01-25T04:50:27.528Z,6.89
2023-01-25T04:52:56.208Z,6.96
2023-01-25T04:55:24.763Z,6.78
2023-01-25T04:57:53.880Z,6.53
2023-01-25T05:00:22.407Z,6.47
2023-01-25T05:02:51.483Z,6.42
2023-01-25T05:05:19.952Z,6.40
2023-01-25T05:07:48.472Z,6.39
2023-01-25T05:10:17.179Z,6.19
2023-01-25T05:13:02.822Z,5.92
2023-01-25T05:15:32.371Z,5.94
2023-01-25T05:18:01.162Z,5.98
2023-01-25T05:20:29.963Z,5.98
2023-01-25T05:22:58.841Z,6.01
2023-01-25T05:25:46.919Z,5.87
2023-01-25T05:28:16.047Z,5.49
2023-01-25T05:31:15.638Z,5.26
2023-01-25T05:33:44.600Z,5.36
2023-01-25T05:36:12.955Z,5.00
2023-01-25T05:38:42.607Z,4.70
2023-01-25T05:41:12.012Z,4.86
2023-01-25T05:43:40.493Z,5.07
2023-01-25T05:46:12.661Z,4.99
2023-01-25T05:48:41.131Z,4.96
2023-01-25T05:51:10.478Z,5.09
2023-01-25T05:53:39.268Z,5.18
2023-01-25T05:56:08.786Z,5.04
2023-01-25T05:58:37.977Z,5.01
2023-01-25T06:01:07.698Z,4.88
2023-01-25T06:03:42.035Z,4.86
2023-01-25T06:06:10.801Z,5.12
2023-01-25T06:08:39.337Z,4.97
2023-01-25T06:11:11.332Z,4.74
2023-01-25T06:13:45.281Z,4.69
2023-01-25T06:16:13.876Z,4.99
2023-01-25T06:19:00.158Z,5.03
2023-01-25T06:21:47.257Z,5.08
2023-01-25T06:24:16.053Z,5.40
2023-01-25T06:26:44.637Z,5.72
2023-01-25T06:29:13.176Z,5.83
2023-01-25T06:31:41.878Z,5.61
2023-01-25T06:34:11.148Z,5.51
2023-01-25T06:36:39.865Z,5.85
2023-01-25T06:39:08.339Z,6.18
2023-01-25T06:41:37.816Z,6.39
2023-01-25T06:44:06.347Z,6.32
2023-01-25T06:46:35.487Z,6.40
2023-01-25T06:49:04.281Z,6.52
2023-01-25T06:51:33.113Z,6.53
2023-01-25T06:54:02.945Z,6.71
2023-01-25T06:56:33.211Z,6.97
2023-01-25T06:59:02.224Z,7.65
2023-01-25T07:01:31.187Z,8.66
2023-01-25T07:03:59.665Z,9.58
2023-01-25T07:06:33.471Z,10.37
2023-01-25T07:09:07.508Z,11.16
2023-01-25T07:11:36.407Z,11.82
2023-01-25T07:14:04.886Z,12.50
2023-01-25T07:16:37.255Z,13.14
2023-01-25T07:19:06.834Z,13.73
2023-01-25T07:21:35.777Z,14.11
2023-01-25T07:24:04.850Z,14.23
2023-01-25T07:26:33.766Z,13.88
2023-01-25T07:29:02.308Z,13.76
2023-01-25T07:31:31.048Z,13.47
2023-01-25T07:33:59.367Z,13.48
2023-01-25T07:36:27.944Z,13.60
2023-01-25T07:38:58.366Z,14.05
2023-01-25T07:41:26.810Z,14.64
2023-01-25T07:43:55.136Z,15.10
2023-01-25T07:46:40.209Z,15.66
2023-01-25T07:49:08.641Z,15.84
2023-01-25T07:51:37.526Z,15.65
2023-01-25T07:54:06.153Z,15.62
2023-01-25T07:56:36.760Z,15.87
2023-01-25T07:59:08.699Z,15.92
2023-01-25T08:01:37.527Z,15.36
2023-01-25T08:04:06.241Z,15.92
2023-01-25T08:06:39.190Z,16.35
2023-01-25T08:09:13.372Z,15.82
2023-01-25T08:11:42.440Z,15.48
2023-01-25T08:14:11.634Z,15.45
2023-01-25T08:16:40.392Z,15.11
2023-01-25T08:19:10.528Z,15.36
2023-01-25T08:21:38.979Z,15.29
2023-01-25T08:24:07.554Z,15.18
2023-01-25T08:26:36.353Z,15.73
2023-01-25T08:29:07.118Z,16.05
2023-01-25T08:31:36.103Z,16.21
2023-01-25T08:34:04.949Z,16.70
2023-01-25T08:36:34.395Z,17.22
2023-01-25T08:39:07.651Z,17.16
2023-01-25T08:41:36.538Z,16.29
2023-01-25T08:44:05.933Z,16.73
2023-01-25T08:46:35.304Z,17.34
2023-01-25T08:49:04.005Z,17.38
2023-01-25T08:51:33.669Z,17.00
2023-01-25T08:54:11.353Z,16.84
2023-01-25T08:56:40.693Z,16.89
2023-01-25T08:59:11.921Z,17.31
2023-01-25T09:01:40.586Z,17.34
2023-01-25T09:04:09.610Z,16.98
2023-01-25T09:06:40.530Z,17.03
2023-01-25T09:09:08.963Z,17.40
2023-01-25T09:11:38.406Z,17.61
2023-01-25T09:14:06.850Z,17.58
2023-01-25T09:16:35.679Z,17.41
2023-01-25T09:19:04.542Z,17.57
2023-01-25T09:21:33.307Z,17.44
2023-01-25T09:24:07.054Z,16.43
2023-01-25T09:26:38.813Z,16.65
2023-01-25T09:30:21.926Z,16.96
2023-01-25T09:32:55.313Z,16.52
2023-01-25T09:35:24.232Z,16.83
2023-01-25T09:37:52.886Z,16.49
2023-01-25T09:40:25.969Z,16.10
2023-01-25T09:43:03.640Z,16.78
2023-01-25T09:45:36.781Z,17.14
2023-01-25T09:48:14.376Z,16.80
2023-01-25T09:55:35.292Z,16.38
2023-01-25T09:58:04.423Z,15.88
2023-01-25T10:00:39.043Z,16.10
2023-01-25T10:03:23.576Z,15.72
2023-01-25T10:05:57.988Z,15.60
2023-01-25T10:08:44.701Z,15.72
2023-01-25T10:11:31.071Z,15.52
2023-01-25T10:13:59.638Z,15.37
2023-01-25T10:16:39.549Z,15.88
2023-01-25T10:19:15.154Z,16.01
2023-01-25T10:22:05.845Z,15.83
2023-01-25T10:24:35.375Z,15.96
2023-01-25T10:27:24.600Z,15.92
2023-01-25T10:29:53.283Z,16.02
2023-01-25T10:32:24.843Z,16.17
2023-01-25T10:35:08.751Z,16.08
2023-01-25T10:37:39.469Z,16.39
2023-01-25T10:40:24.324Z,16.53
2023-01-25T10:42:56.675Z,16.89
2023-01-25T10:45:27.021Z,17.34
2023-01-25T10:47:58.210Z,17.52
2023-01-25T10:50:42.616Z,17.19
2023-01-25T10:53:34.167Z,16.51
2023-01-25T10:56:06.477Z,15.57
2023-01-25T10:58:46.449Z,14.81
2023-01-25T11:01:41.041Z,14.46
2023-01-25T11:04:35.459Z,14.10
2023-01-25T11:07:06.327Z,13.46
2023-01-25T11:09:36.970Z,13.29
2023-01-25T11:12:11.829Z,13.61
2023-01-25T11:14:40.306Z,13.79
2023-01-25T11:17:38.269Z,13.85
2023-01-25T11:20:18.796Z,13.78
2023-01-25T11:22:55.254Z,13.75
2023-01-25T11:25:34.168Z,12.89
2023-01-25T11:28:16.240Z,12.86
2023-01-25T11:30:45.381Z,12.91
2023-01-25T11:33:14.966Z,12.77
2023-01-25T11:36:08.964Z,12.54
2023-01-25T11:38:37.976Z,12.42
2023-01-25T11:41:17.242Z,11.95
2023-01-25T11:43:54.247Z,11.97
2023-01-25T11:47:02.041Z,11.64
2023-01-25T11:49:57.994Z,11.56
2023-01-25T11:52:40.237Z,11.68
2023-01-25T11:55:18.013Z,11.39
2023-01-25T11:58:11.249Z,11.32
2023-01-25T12:00:45.515Z,11.03
2023-01-25T12:03:27.202Z,11.28
2023-01-25T12:06:07.988Z,11.18
2023-01-25T12:08:36.569Z,11.17
2023-01-25T12:11:40.327Z,11.19
2023-01-25T12:14:37.178Z,11.08
2023-01-25T12:17:28.528Z,11.20
2023-01-25T12:20:04.462Z,11.37
2023-01-25T12:22:52.284Z,11.41
2023-01-25T12:25:31.864Z,11.56
2023-01-25T12:28:19.747Z,11.54
2023-01-25T12:31:19.668Z,11.33
2023-01-25T12:33:56.567Z,11.37
2023-01-25T12:36:34.326Z,11.40
2023-01-25T12:39:09.925Z,11.30
2023-01-25T12:41:59.037Z,11.08
2023-01-25T12:44:31.628Z,11.01
2023-01-25T12:47:08.197Z,10.83
2023-01-25T12:49:47.380Z,10.60
2023-01-25T12:52:21.235Z,10.56
2023-01-25T12:54:49.879Z,10.62
2023-01-25T12:57:51.580Z,10.75
2023-01-25T13:00:41.568Z,10.52
2023-01-25T13:03:18.111Z,10.52
2023-01-25T13:05:46.608Z,10.39
2023-01-25T13:08:48.917Z,10.40
2023-01-25T13:11:23.992Z,10.52
2023-01-25T13:13:53.288Z,10.46
2023-01-25T13:16:31.109Z,10.34
2023-01-25T13:18:59.821Z,10.27
2023-01-25T13:21:38.519Z,10.19
2023-01-25T13:24:18.593Z,10.18
2023-01-25T13:26:54.274Z,10.19
2023-01-25T13:29:32.525Z,10.19
2023-01-25T13:32:01.320Z,10.21
2023-01-25T13:34:39.613Z,10.14
2023-01-25T13:37:24.623Z,10.07
2023-01-25T13:39:55.000Z,9.90
2023-01-25T13:42:29.975Z,9.72
2023-01-25T13:45:04.547Z,9.61
2023-01-25T13:47:43.268Z,9.12
2023-01-25T13:50:14.876Z,9.19
2023-01-25T13:53:00.191Z,9.27
2023-01-25T13:55:29.981Z,9.32
2023-01-25T13:58:16.959Z,9.17
2023-01-25T14:01:19.358Z,9.16
2023-01-25T14:03:52.836Z,9.06
2023-01-25T14:06:24.460Z,8.93
2023-01-25T14:08:53.955Z,8.90
2023-01-25T14:11:30.834Z,9.01
2023-01-25T14:14:03.373Z,9.15
2023-01-25T14:16:32.198Z,9.11
2023-01-25T14:19:24.023Z,8.97
2023-01-25T14:22:31.712Z,9.00
2023-01-25T14:25:17.359Z,8.93
2023-01-25T14:27:53.583Z,8.94
2023-01-25T14:30:32.738Z,8.86
2023-01-25T14:33:31.344Z,8.91
2023-01-25T14:36:16.275Z,8.88
2023-01-25T14:38:52.568Z,8.97
2023-01-25T14:41:29.176Z,9.01
2023-01-25T14:43:59.543Z,9.01
2023-01-25T14:46:35.355Z,8.88
2023-01-25T14:49:26.567Z,8.69
2023-01-25T14:52:05.617Z,8.40
2023-01-25T14:54:37.135Z,8.23
2023-01-25T14:57:07.671Z,8.20
2023-01-25T14:59:37.627Z,8.05
2023-01-25T15:02:39.921Z,7.94
2023-01-25T15:05:20.845Z,7.92
2023-01-25T15:07:50.858Z,7.95
2023-01-25T15:10:27.408Z,8.06
2023-01-25T15:13:07.652Z,8.17
2023-01-25T15:15:58.018Z,8.17
2023-01-25T15:18:48.494Z,8.05
2023-01-25T15:21:21.736Z,7.98
2023-01-25T15:23:50.432Z,7.70
2023-01-25T15:26:23.019Z,7.56
2023-01-25T15:28:55.732Z,7.47
2023-01-25T15:31:25.921Z,7.45
2023-01-25T15:33:55.466Z,7.47
2023-01-25T15:36:24.200Z,7.42
2023-01-25T15:38:52.749Z,7.41
2023-01-25T15:41:24.485Z,7.31
2023-01-25T15:43:53.660Z,7.31
2023-01-25T15:46:23.401Z,7.39
2023-01-25T15:48:52.673Z,7.51
2023-01-25T15:51:21.199Z,7.39
2023-01-25T15:53:49.553Z,7.32
2023-01-25T15:56:49.311Z,7.10
2023-01-25T15:59:18.286Z,7.04
2023-01-25T16:01:46.796Z,7.02
2023-01-25T16:04:17.168Z,7.08
2023-01-25T16:06:50.383Z,7.08
2023-01-25T16:09:20.212Z,6.99
2023-01-25T16:11:51.528Z,6.90
2023-01-25T16:14:20.254Z,6.92
2023-01-25T16:16:49.672Z,6.95
2023-01-25T16:19:19.857Z,6.94
2023-01-25T16:21:51.471Z,7.00
2023-01-25T16:24:19.945Z,7.07
2023-01-25T16:26:52.821Z,6.99
2023-01-25T16:29:23.227Z,7.00
2023-01-25T16:31:52.305Z,7.07
2023-01-25T16:34:22.281Z,7.06
2023-01-25T16:36:54.356Z,6.98
2023-01-25T16:39:24.368Z,6.97
2023-01-25T16:41:52.814Z,6.87
2023-01-25T16:44:22.839Z,6.83
2023-01-25T16:46:52.452Z,6.84
2023-01-25T16:49:23.107Z,6.85
2023-01-25T16:51:52.567Z,6.90
2023-01-25T16:54:21.458Z,6.89
2023-01-25T16:56:50.254Z,6.92
2023-01-25T16:59:18.735Z,6.92
2023-01-25T17:01:47.470Z,6.95
2023-01-25T17:04:16.208Z,7.02
2023-01-25T17:06:46.640Z,7.12
2023-01-25T17:09:24.501Z,7.08
2023-01-25T17:11:54.769Z,7.00
2023-01-25T17:14:23.540Z,7.06
2023-01-25T17:16:55.830Z,7.05
2023-01-25T17:19:25.333Z,6.97
2023-01-25T17:21:53.732Z,6.88
2023-01-25T17:24:22.487Z,6.81
2023-01-25T17:26:51.373Z,6.85
2023-01-25T17:29:19.907Z,6.81
2023-01-25T17:31:48.698Z,6.71
2023-01-25T17:34:22.217Z,6.75
2023-01-25T17:36:52.822Z,6.70
2023-01-25T17:39:21.382Z,6.80
2023-01-25T17:41:50.530Z,6.94
2023-01-25T17:44:23.033Z,6.84
2023-01-25T17:46:51.922Z,6.89
2023-01-25T17:49:22.748Z,6.83
2023-01-25T17:51:51.584Z,6.78
2023-01-25T17:54:21.943Z,6.54
2023-01-25T17:56:50.308Z,6.51
2023-01-25T17:59:19.427Z,6.45
2023-01-25T18:01:49.468Z,6.41
2023-01-25T18:04:18.331Z,6.33
2023-01-25T18:06:49.750Z,6.26
2023-01-25T18:09:19.266Z,6.23
2023-01-25T18:11:48.351Z,6.34
2023-01-25T18:14:17.160Z,6.39
2023-01-25T18:16:46.230Z,6.42
2023-01-25T18:19:14.899Z,6.40
2023-01-25T18:21:43.977Z,6.38
2023-01-25T18:24:34.493Z,6.29
2023-01-25T18:27:23.398Z,6.33
2023-01-25T18:30:26.422Z,6.33
2023-01-25T18:32:54.924Z,6.36
2023-01-25T18:35:25.339Z,6.20
2023-01-25T18:37:56.098Z,6.23
2023-01-25T18:40:25.087Z,6.17
2023-01-25T18:42:56.582Z,6.08
2023-01-25T18:45:26.091Z,6.09
2023-01-25T18:47:54.591Z,6.06
2023-01-25T18:50:24.004Z,5.94
2023-01-25T18:52:54.538Z,5.91
2023-01-25T18:55:23.335Z,5.88
2023-01-25T18:57:51.787Z,5.92
2023-01-25T19:00:20.593Z,5.95
2023-01-25T19:02:49.150Z,5.94
2023-01-25T19:05:20.117Z,5.92
2023-01-25T19:07:48.704Z,5.79
2023-01-25T19:10:17.957Z,5.62
2023-01-25T19:12:46.622Z,5.60
2023-01-25T19:15:15.429Z,5.52
2023-01-25T19:17:44.466Z,5.63
2023-01-25T19:20:14.208Z,5.69
2023-01-25T19:22:42.485Z,5.68
2023-01-25T19:25:11.179Z,5.66
2023-01-25T19:27:40.588Z,5.66
2023-01-25T19:30:10.144Z,5.64
2023-01-25T19:32:38.904Z,5.65
2023-01-25T19:35:08.306Z,5.65
2023-01-25T19:37:37.052Z,5.60
2023-01-25T19:40:09.313Z,5.43
2023-01-25T19:42:38.498Z,5.44
2023-01-25T19:45:08.072Z,5.38
2023-01-25T19:47:37.117Z,5.28
2023-01-25T19:50:06.819Z,5.28
2023-01-25T19:52:36.620Z,5.31
2023-01-25T19:55:06.419Z,5.26
2023-01-25T19:57:35.579Z,5.12
2023-01-25T20:00:07.407Z,5.01
2023-01-25T20:02:36.854Z,4.94
2023-01-25T20:05:09.121Z,4.92
2023-01-25T20:07:38.257Z,4.84
2023-01-25T20:10:07.627Z,4.92
2023-01-25T20:12:37.793Z,4.89
2023-01-25T20:15:08.295Z,4.82
2023-01-25T20:17:38.697Z,4.78
2023-01-25T20:20:08.006Z,4.80
2023-01-25T20:22:36.927Z,4.73
2023-01-25T20:25:05.586Z,4.79
2023-01-25T20:27:34.083Z,4.76
2023-01-25T20:30:02.864Z,4.80
2023-01-25T20:32:33.511Z,4.77
2023-01-25T20:35:06.288Z,4.76
2023-01-25T20:37:34.983Z,4.76
2023-01-25T20:40:04.003Z,4.85
2023-01-25T20:42:32.798Z,4.83
2023-01-25T20:45:01.180Z,4.77
2023-01-25T20:47:29.865Z,4.81
2023-01-25T20:49:58.235Z,4.73
2023-01-25T20:52:26.826Z,4.85
2023-01-25T20:54:55.590Z,4.73
2023-01-25T20:57:24.234Z,4.59
2023-01-25T20:59:52.778Z,4.69
2023-01-25T21:02:21.306Z,4.56
2023-01-25T21:04:49.796Z,4.61
2023-01-25T21:07:18.177Z,4.61
2023-01-25T21:09:47.047Z,4.71
2023-01-25T21:12:16.225Z,4.80
2023-01-25T21:14:45.115Z,4.83
2023-01-25T21:17:14.602Z,4.90
2023-01-25T21:19:43.193Z,4.95
2023-01-25T21:22:12.257Z,4.89
2023-01-25T21:24:41.104Z,4.92
2023-01-25T21:27:10.194Z,4.92
2023-01-25T21:29:38.972Z,5.01
2023-01-25T21:32:07.921Z,5.09
2023-01-25T21:34:37.255Z,4.95
2023-01-25T21:37:05.551Z,4.85
2023-01-25T21:39:34.346Z,4.76
2023-01-25T21:42:03.517Z,4.73
2023-01-25T21:44:51.554Z,4.72
2023-01-25T21:47:29.810Z,4.71
2023-01-25T21:50:18.015Z,4.63
2023-01-25T21:52:46.818Z,4.64
2023-01-25T21:55:15.480Z,4.60
2023-01-25T21:57:47.461Z,4.54
2023-01-25T22:00:16.859Z,4.46
2023-01-25T22:02:45.921Z,4.41
2023-01-25T22:05:14.636Z,4.31
2023-01-25T22:07:43.662Z,4.18
2023-01-25T22:10:12.672Z,4.16
2023-01-25T22:12:42.136Z,4.16
2023-01-25T22:15:11.828Z,3.82
2023-01-25T22:17:41.341Z,4.07
2023-01-25T22:20:11.355Z,4.22
2023-01-25T22:22:40.241Z,4.21
2023-01-25T22:25:09.847Z,4.10
2023-01-25T22:27:52.357Z,3.97
2023-01-25T22:30:20.943Z,3.86
2023-01-25T22:32:49.851Z,3.86
2023-01-25T22:35:18.650Z,3.81
2023-01-25T22:37:47.711Z,3.74
2023-01-25T22:40:16.909Z,3.61
2023-01-25T22:42:45.400Z,3.55
2023-01-25T22:45:13.978Z,3.52
2023-01-25T22:47:43.805Z,3.56
2023-01-25T22:50:12.516Z,3.50
2023-01-25T22:52:41.264Z,3.53
2023-01-25T22:55:11.386Z,3.54
2023-01-25T22:57:40.065Z,3.53
2023-01-25T23:00:10.024Z,3.53
2023-01-25T23:02:40.308Z,3.53
2023-01-25T23:05:08.893Z,3.61
2023-01-25T23:07:37.497Z,3.63
2023-01-25T23:10:06.798Z,3.54
2023-01-25T23:12:35.889Z,3.32
2023-01-25T23:15:15.715Z,3.39
2023-01-25T23:18:03.130Z,3.46
2023-01-25T23:20:31.658Z,3.50
2023-01-25T23:23:00.751Z,3.46
2023-01-25T23:25:30.082Z,3.41
2023-01-25T23:27:58.470Z,3.40
2023-01-25T23:30:27.211Z,3.35
2023-01-25T23:32:55.681Z,3.46
2023-01-25T23:35:25.239Z,3.50
2023-01-25T23:37:53.749Z,3.49
2023-01-25T23:40:22.157Z,3.39
2023-01-25T23:42:51.326Z,3.42
2023-01-25T23:45:26.135Z,3.44
2023-01-25T23:47:55.048Z,3.43
2023-01-25T23:50:23.435Z,3.42
2023-01-25T23:52:52.486Z,3.48
2023-01-25T23:55:20.845Z,3.60
2023-01-25T23:57:49.336Z,3.44
